Time;durP1;ratioP1;P1;durP2;ratioP2;P2;SDS_P1;SDS_P2;PMS_P1;PMS_P2;Temp;Humidity;BMP_temperature;BMP_pressure;BME280_temperature;BME280_humidity;BME280_pressure;Samples;Min_cycle;Max_cycle;Signal;HPM_P1;HPM_P2
2021/04/21 00:00:57;;;;;;;19.23;17.33;;;5.40;99.90;;;6.16;78.65;97801.41;5248958;28;20192;-63
2021/04/21 00:03:31;;;;;;;18.73;16.73;;;5.40;99.90;;;6.05;79.00;97794.66;5249162;28;20202;-63
2021/04/21 00:06:05;;;;;;;18.87;16.73;;;5.30;99.90;;;6.06;79.02;97798.94;5241308;28;20197;-63
2021/04/21 00:08:37;;;;;;;19.50;17.60;;;5.30;99.90;;;6.06;79.07;97792.19;5228326;28;20193;-62
2021/04/21 00:11:10;;;;;;;19.10;17.10;;;5.30;99.90;;;6.14;78.57;97790.25;5247419;28;20226;-63
2021/04/21 00:13:44;;;;;;;18.37;16.57;;;5.30;99.90;;;6.13;78.78;97792.69;5248570;28;20192;-63
2021/04/21 00:16:17;;;;;;;18.77;16.97;;;5.30;99.90;;;6.17;78.64;97793.00;5238211;28;20196;-63
2021/04/21 00:18:50;;;;;;;18.50;16.60;;;5.30;99.90;;;6.19;78.64;97788.94;5247651;28;20217;-62
2021/04/21 00:21:25;;;;;;;19.07;17.07;;;5.30;99.90;;;6.15;78.20;97797.06;5247569;28;20220;-63
2021/04/21 00:23:57;;;;;;;17.50;15.70;;;5.30;99.90;;;6.12;78.27;97789.22;5248051;28;20199;-63
2021/04/21 00:26:30;;;;;;;18.20;16.33;;;5.30;99.90;;;6.15;77.44;97791.13;5248299;28;20189;-63
2021/04/21 00:29:04;;;;;;;17.97;16.07;;;5.30;99.90;;;6.09;77.22;97792.47;5248309;28;20188;-63
2021/04/21 00:31:38;;;;;;;17.40;15.63;;;5.20;99.90;;;6.08;77.74;97795.75;5248598;28;20232;-63
2021/04/21 00:34:12;;;;;;;19.37;17.40;;;5.10;99.90;;;6.03;77.57;97791.09;5247783;28;20315;-63
2021/04/21 00:36:49;;;;;;;20.43;18.33;;;5.10;99.90;;;6.00;77.62;97801.03;5247624;28;20198;-61
2021/04/21 00:39:23;;;;;;;20.30;18.20;;;5.10;99.90;;;5.89;77.87;97797.66;5248283;28;20220;-61
2021/04/21 00:42:02;;;;;;;19.30;17.30;;;5.10;99.90;;;5.88;78.08;97791.72;5247862;28;20216;-61
2021/04/21 00:44:41;;;;;;;21.10;18.37;;;5.10;99.90;;;5.85;78.35;97791.50;5247598;28;20757;-63
2021/04/21 00:47:19;;;;;;;20.33;18.13;;;5.10;99.90;;;5.84;78.80;97789.72;5247279;28;20554;-63
2021/04/21 00:50:01;;;;;;;21.73;18.97;;;5.00;99.90;;;5.84;78.80;97786.31;5238793;28;20224;-62
2021/04/21 00:52:46;;;;;;;22.43;19.43;;;5.00;99.90;;;5.72;78.92;97785.38;5245134;28;20299;-63
2021/04/21 00:55:28;;;;;;;21.30;19.00;;;4.90;99.90;;;5.73;79.05;97795.66;5240412;28;20211;-63
2021/04/21 00:58:09;;;;;;;18.80;16.77;;;4.90;99.90;;;5.78;78.39;97784.22;5244229;28;20218;-61
2021/04/21 01:00:46;;;;;;;18.17;16.30;;;4.90;99.90;;;5.79;78.19;97792.69;5247907;28;20218;-64
2021/04/21 01:03:20;;;;;;;19.03;17.00;;;4.90;99.90;;;5.72;78.00;97788.81;5247373;28;20220;-62
2021/04/21 01:06:00;;;;;;;19.37;17.37;;;4.90;99.90;;;5.73;77.88;97782.97;5246875;28;20233;-62
2021/04/21 01:08:38;;;;;;;18.83;17.00;;;4.80;99.90;;;5.72;77.74;97781.19;5247027;28;20197;-63
2021/04/21 01:11:16;;;;;;;19.27;16.80;;;4.80;99.90;;;5.68;77.73;97786.81;5247838;28;20224;-62
2021/04/21 01:13:54;;;;;;;18.97;16.97;;;4.70;99.90;;;5.64;77.60;97780.66;5246976;28;20203;-62
2021/04/21 01:16:31;;;;;;;18.80;17.00;;;4.70;99.90;;;5.62;77.96;97784.72;5246753;28;20210;-63
2021/04/21 01:19:18;;;;;;;20.20;18.10;;;4.70;99.90;;;5.60;77.91;97781.16;5245770;28;20579;-63
2021/04/21 01:21:54;;;;;;;20.37;18.20;;;4.70;99.90;;;5.59;78.06;97776.00;5241111;28;20229;-63
2021/04/21 01:24:41;;;;;;;19.67;17.77;;;4.70;99.90;;;5.61;77.48;97779.53;5246039;28;20215;-62
2021/04/21 01:27:18;;;;;;;18.53;16.73;;;4.70;99.90;;;5.53;77.97;97778.97;5247561;28;20207;-63
2021/04/21 01:29:55;;;;;;;19.10;17.17;;;4.60;99.90;;;5.52;78.27;97776.28;5240530;28;20261;-63
2021/04/21 01:32:31;;;;;;;18.77;16.87;;;4.60;99.90;;;5.46;78.34;97776.72;5247395;28;20233;-62
2021/04/21 01:35:06;;;;;;;20.00;17.97;;;4.50;99.90;;;5.43;78.28;97767.22;5237233;28;20194;-61
2021/04/21 01:37:39;;;;;;;19.67;17.67;;;4.40;99.90;;;5.35;78.20;97770.88;5246451;28;20754;-63
2021/04/21 01:40:17;;;;;;;18.10;16.30;;;4.40;99.90;;;5.29;78.09;97766.97;5239961;28;20208;-63
2021/04/21 01:42:55;;;;;;;19.97;17.93;;;4.40;99.90;;;5.26;78.00;97767.63;5246932;28;20531;-63
2021/04/21 01:45:30;;;;;;;19.53;17.60;;;4.40;99.90;;;5.27;78.04;97774.47;5246730;28;20572;-63
2021/04/21 01:48:13;;;;;;;20.07;17.83;;;4.30;99.90;;;5.26;77.22;97774.34;5246625;28;20196;-63
2021/04/21 01:50:45;;;;;;;17.23;15.53;;;4.30;99.90;;;5.22;76.46;97767.28;5237696;28;20194;-63
2021/04/21 01:53:31;;;;;;;18.70;16.77;;;4.10;99.90;;;5.10;77.19;97778.25;5233976;28;20585;-63
2021/04/21 01:56:09;;;;;;;18.67;16.77;;;4.10;99.90;;;5.01;77.55;97772.47;5240475;28;20201;-63
2021/04/21 01:59:02;;;;;;;19.50;17.60;;;4.10;99.90;;;4.94;77.89;97765.16;5246170;28;20217;-63
2021/04/21 02:01:45;;;;;;;19.83;17.47;;;4.10;99.90;;;4.87;77.85;97768.88;5244904;28;20266;-63
2021/04/21 02:04:35;;;;;;;18.43;16.53;;;4.00;99.90;;;4.92;78.19;97766.69;5246352;28;20203;-63
2021/04/21 02:07:33;;;;;;;17.53;15.77;;;4.00;99.90;;;4.92;78.12;97772.66;5243723;28;20208;-62
2021/04/21 02:10:23;;;;;;;19.97;17.20;;;4.00;99.90;;;4.94;78.25;97773.63;5246704;28;20653;-64
2021/04/21 02:13:21;;;;;;;18.37;16.47;;;4.00;99.90;;;4.84;78.19;97768.66;5246182;28;20217;-63
2021/04/21 02:16:13;;;;;;;18.27;16.37;;;3.90;99.90;;;4.80;77.57;97768.28;5245985;28;20204;-63
2021/04/21 02:19:03;;;;;;;18.83;17.03;;;3.80;99.90;;;4.79;78.07;97769.94;5236514;28;20212;-63
2021/04/21 02:21:45;;;;;;;17.73;15.90;;;3.90;99.90;;;4.74;78.32;97773.75;5242392;28;20625;-63
2021/04/21 02:24:30;;;;;;;18.40;16.60;;;3.80;99.90;;;4.63;78.69;97777.09;5246094;28;20208;-63
2021/04/21 02:27:10;;;;;;;18.07;16.17;;;3.80;99.90;;;4.64;79.05;97778.88;5244228;28;20192;-63
2021/04/21 02:29:47;;;;;;;19.50;17.40;;;3.70;99.90;;;4.61;78.97;97779.50;5242476;28;20667;-63
2021/04/21 02:32:35;;;;;;;19.30;17.30;;;3.70;99.90;;;4.61;79.61;97783.69;5254181;22;20226;-63
2021/04/21 02:35:17;;;;;;;17.87;16.07;;;3.80;99.90;;;4.66;79.13;97787.44;5244990;28;20184;-63
2021/04/21 02:38:18;;;;;;;19.40;17.40;;;3.70;99.90;;;4.55;78.94;97785.72;5245536;28;20231;-63
2021/04/21 02:41:11;;;;;;;20.17;18.00;;;3.60;99.90;;;4.53;79.16;97772.97;5247927;28;20192;-63
2021/04/21 02:43:59;;;;;;;18.87;16.87;;;3.60;99.90;;;4.50;79.72;97776.13;5247314;28;20236;-63
2021/04/21 02:46:40;;;;;;;19.33;17.33;;;3.60;99.90;;;4.54;79.39;97766.25;5240950;28;20203;-62
2021/04/21 02:49:45;;;;;;;19.80;17.70;;;3.60;99.90;;;4.48;79.88;97767.53;5241548;28;20232;-63
2021/04/21 02:52:31;;;;;;;21.03;18.77;;;3.60;99.90;;;4.48;79.57;97765.00;5245258;28;20230;-63
2021/04/21 02:55:14;;;;;;;19.07;17.10;;;3.60;99.90;;;4.40;78.93;97762.63;5237411;28;20193;-63
2021/04/21 02:57:58;;;;;;;19.00;17.10;;;3.60;99.90;;;4.33;78.83;97778.09;5226869;28;20223;-63
2021/04/21 03:00:37;;;;;;;19.07;17.03;;;3.50;99.90;;;4.34;79.34;97777.31;5237856;28;20193;-63
2021/04/21 03:03:17;;;;;;;18.50;16.60;;;3.40;99.90;;;4.38;79.80;97770.13;5227209;28;20218;-63
2021/04/21 03:05:57;;;;;;;19.53;17.40;;;3.40;99.90;;;4.34;79.06;97770.63;5235652;28;20197;-62
2021/04/21 03:08:36;;;;;;;19.10;16.90;;;3.40;99.90;;;4.29;79.57;97769.38;5245730;28;20194;-61
2021/04/21 03:11:13;;;;;;;18.90;16.47;;;3.40;99.90;;;4.31;78.92;97777.97;5245496;28;20212;-63
2021/04/21 03:13:53;;;;;;;19.53;17.40;;;3.40;99.90;;;4.22;78.69;97778.13;5229642;28;20308;-63
2021/04/21 03:16:29;;;;;;;21.13;18.83;;;3.30;99.90;;;4.16;78.40;97774.22;5243673;28;20207;-63
2021/04/21 03:19:07;;;;;;;19.87;17.80;;;3.30;99.90;;;4.11;79.38;97771.31;5227467;28;20220;-64
2021/04/21 03:21:45;;;;;;;18.37;16.37;;;3.20;99.90;;;4.14;79.35;97778.28;5230864;28;20223;-61
2021/04/21 03:24:22;;;;;;;20.30;18.20;;;3.30;99.90;;;4.08;79.62;97768.53;5240238;28;20196;-63
2021/04/21 03:27:00;;;;;;;19.27;17.03;;;3.20;99.90;;;4.04;79.81;97774.13;5226788;28;20682;-61
2021/04/21 03:29:38;;;;;;;18.87;16.87;;;3.20;99.90;;;3.98;79.23;97772.00;5225651;28;20218;-63
2021/04/21 03:32:16;;;;;;;20.73;17.97;;;3.20;99.90;;;3.91;80.23;97769.72;5241639;28;20741;-63
2021/04/21 03:34:50;;;;;;;20.57;18.23;;;3.10;99.90;;;3.92;79.71;97766.44;5237549;28;20196;-62
2021/04/21 03:37:32;;;;;;;21.97;19.33;;;3.00;99.90;;;3.77;80.39;97770.22;5241302;28;20640;-63
2021/04/21 03:40:07;;;;;;;21.97;19.00;;;3.00;99.90;;;3.81;80.91;97762.16;5227211;28;20215;-63
2021/04/21 03:42:40;;;;;;;21.60;18.90;;;3.00;99.90;;;3.88;81.63;97759.34;5231798;28;20226;-63
2021/04/21 03:45:13;;;;;;;21.87;18.47;;;3.10;99.90;;;3.90;81.18;97755.31;5235199;28;20208;-63
2021/04/21 03:47:46;;;;;;;19.90;17.07;;;3.10;99.90;;;3.90;80.70;97757.84;5235081;28;20201;-63
2021/04/21 03:50:19;;;;;;;19.67;17.57;;;3.00;99.90;;;3.94;80.41;97759.84;5243898;28;20546;-63
2021/04/21 03:52:57;;;;;;;20.60;18.37;;;3.10;99.90;;;3.92;80.54;97756.34;5234543;28;20679;-63
2021/04/21 03:55:31;;;;;;;19.97;17.87;;;3.10;99.90;;;3.97;79.58;97760.09;5243710;28;20206;-63
2021/04/21 03:58:06;;;;;;;19.47;17.07;;;3.10;99.90;;;3.93;79.42;97758.09;5238794;28;20222;-63
2021/04/21 04:00:40;;;;;;;19.90;17.47;;;3.00;99.90;;;3.91;78.32;97754.53;5231003;28;20193;-63
2021/04/21 04:03:17;;;;;;;20.67;18.47;;;2.90;99.90;;;3.77;78.91;97758.47;5237410;28;20224;-63
2021/04/21 04:05:56;;;;;;;20.40;18.20;;;2.90;99.90;;;3.80;78.67;97755.31;5237273;28;20629;-63
2021/04/21 04:08:42;;;;;;;22.03;18.63;;;2.80;99.90;;;3.72;78.87;97753.81;5245357;28;20193;-63
2021/04/21 04:11:17;;;;;;;20.80;18.57;;;2.80;99.90;;;3.72;79.14;97756.34;5229415;28;20297;-62
2021/04/21 04:13:57;;;;;;;19.67;17.67;;;2.80;99.90;;;3.69;79.67;97745.97;5236526;28;20193;-63
2021/04/21 04:16:32;;;;;;;20.00;17.90;;;2.80;99.90;;;3.68;79.21;97756.84;5229166;28;20216;-63
2021/04/21 04:19:04;;;;;;;20.40;18.30;;;2.80;99.90;;;3.65;79.02;97754.06;5238984;28;20592;-63
2021/04/21 04:21:39;;;;;;;20.53;18.23;;;2.80;99.90;;;3.61;79.26;97763.94;5240695;28;20200;-63
2021/04/21 04:24:15;;;;;;;22.93;20.00;;;2.70;99.90;;;3.48;79.41;97761.16;5247502;28;20701;-63
2021/04/21 04:26:48;;;;;;;20.03;17.93;;;2.60;99.90;;;3.38;80.09;97763.69;5247867;28;20575;-63
2021/04/21 04:29:23;;;;;;;21.63;19.17;;;2.50;99.90;;;3.44;80.00;97756.63;5248582;28;20738;-63
2021/04/21 04:31:57;;;;;;;20.47;18.23;;;2.60;99.90;;;3.69;80.34;97763.66;5240234;28;20232;-63
2021/04/21 04:34:29;;;;;;;23.03;18.77;;;2.80;99.90;;;3.60;80.51;97762.16;5240873;28;20242;-63
2021/04/21 04:37:02;;;;;;;23.57;21.10;;;2.80;99.90;;;3.54;80.17;97770.88;5242451;28;20198;-63
2021/04/21 04:39:35;;;;;;;20.87;18.33;;;2.80;99.90;;;3.43;80.56;97777.56;5229212;28;20224;-63
2021/04/21 04:42:10;;;;;;;21.63;19.50;;;2.70;99.90;;;3.46;80.09;97771.88;5239829;28;20215;-63
2021/04/21 04:44:48;;;;;;;21.60;18.77;;;2.70;99.90;;;3.52;80.50;97780.88;5232510;28;20232;-63
2021/04/21 04:47:25;;;;;;;23.27;18.97;;;2.70;99.90;;;3.46;80.79;97784.50;5228280;28;20201;-63
2021/04/21 04:50:05;;;;;;;23.63;19.80;;;2.60;99.90;;;3.52;81.45;97778.34;5230644;28;20193;-63
2021/04/21 04:52:40;;;;;;;22.27;19.57;;;2.70;99.90;;;3.51;80.56;97784.13;5242980;28;20224;-63
2021/04/21 04:55:16;;;;;;;23.33;19.37;;;2.80;99.90;;;3.57;81.21;97787.16;5232638;28;20297;-64
2021/04/21 04:57:54;;;;;;;24.53;21.97;;;2.80;99.90;;;3.53;80.83;97784.28;5233390;28;20193;-63
2021/04/21 05:00:28;;;;;;;21.80;19.23;;;2.80;99.90;;;3.59;80.97;97785.66;5235250;28;20189;-63
2021/04/21 05:03:07;;;;;;;23.93;20.20;;;2.90;99.90;;;3.63;81.29;97784.25;5239453;28;20238;-64
2021/04/21 05:05:40;;;;;;;24.70;20.63;;;2.90;99.90;;;3.65;80.88;97789.47;5233456;28;20692;-63
2021/04/21 05:08:16;;;;;;;22.57;19.63;;;2.90;99.90;;;3.79;81.57;97784.78;5232218;28;20208;-61
2021/04/21 05:10:54;;;;;;;23.23;19.83;;;3.10;99.90;;;3.80;80.50;97780.59;5240957;28;20721;-63
2021/04/21 05:13:37;;;;;;;22.00;19.67;;;3.10;99.90;;;3.84;80.53;97788.56;5242180;28;20742;-64
2021/04/21 05:17:16;;;;;;;24.30;20.50;;;3.10;99.90;;;4.00;80.26;97785.63;5228099;28;20564;-63
2021/04/21 05:20:28;;;;;;;24.77;20.83;;;3.30;99.90;;;4.27;80.23;97796.19;5236141;28;20705;-64
2021/04/21 05:23:57;;;;;;;23.40;20.77;;;3.50;99.90;;;4.64;79.25;97800.00;5215235;28;20272;-63
2021/04/21 05:26:51;;;;;;;24.27;20.33;;;3.70;99.90;;;5.15;78.03;97806.44;5227170;28;20202;-64
2021/04/21 05:30:09;;;;;;;21.77;18.83;;;4.00;99.90;;;5.73;76.24;97805.81;5231347;28;20287;-62
2021/04/21 05:33:46;;;;;;;22.50;18.90;;;4.50;99.90;;;6.26;74.11;97805.47;5227457;28;20609;-61
2021/04/21 05:37:15;;;;;;;21.67;19.07;;;4.90;99.90;;;6.71;72.19;97802.81;5227817;28;20283;-61
2021/04/21 05:40:35;;;;;;;20.07;17.97;;;5.30;99.90;;;7.06;69.62;97804.38;5228891;28;20247;-61
2021/04/21 05:44:24;;;;;;;20.00;17.90;;;5.60;99.90;;;7.45;68.57;97807.91;5228273;28;20676;-62
2021/04/21 05:47:56;;;;;;;20.63;18.43;;;5.90;99.90;;;7.85;67.21;97800.44;5245881;28;20200;-62
2021/04/21 05:51:27;;;;;;;21.43;19.13;;;6.10;99.90;;;8.05;65.36;97806.84;5219787;28;20197;-62
2021/04/21 05:54:51;;;;;;;20.87;18.67;;;6.40;99.90;;;8.23;63.60;97809.69;5218805;28;20197;-61
2021/04/21 05:58:12;;;;;;;21.57;19.37;;;6.60;99.90;;;8.48;63.44;97810.53;5226525;28;20323;-62
2021/04/21 06:01:21;;;;;;;20.57;18.40;;;6.60;99.90;;;8.74;62.82;97811.31;5244952;28;20197;-59
2021/04/21 06:03:56;;;;;;;19.97;17.97;;;6.70;99.90;;;9.12;61.84;97815.38;5244975;28;20227;-60
2021/04/21 06:06:29;;;;;;;21.37;19.07;;;7.00;99.90;;;9.43;59.83;97813.03;5243553;28;20197;-60
2021/04/21 06:09:07;;;;;;;21.07;18.87;;;7.10;99.90;;;9.66;60.39;97816.97;5243787;28;20568;-61
2021/04/21 06:11:39;;;;;;;21.03;18.83;;;7.30;99.90;;;10.07;58.15;97806.63;5247146;28;20218;-61
2021/04/21 06:14:11;;;;;;;20.13;18.03;;;7.60;99.90;;;10.36;57.60;97805.78;5242008;28;20207;-60
2021/04/21 06:16:43;;;;;;;19.67;17.67;;;8.00;99.90;;;10.33;57.82;97805.63;5230543;28;20199;-61
2021/04/21 06:19:15;;;;;;;19.43;17.47;;;7.90;99.90;;;10.76;56.50;97815.69;5242779;28;20217;-61
2021/04/21 06:21:49;;;;;;;19.10;17.20;;;8.10;99.90;;;11.01;55.34;97809.34;5242574;28;20578;-62
2021/04/21 06:24:24;;;;;;;19.07;17.17;;;8.40;99.90;;;11.32;54.74;97811.00;5242332;28;20208;-61
2021/04/21 06:27:06;;;;;;;19.00;17.10;;;8.60;99.90;;;11.45;55.54;97814.28;5246683;28;20215;-61
2021/04/21 06:29:40;;;;;;;19.27;17.30;;;8.80;99.90;;;11.56;54.93;97813.97;5237249;28;20280;-60
2021/04/21 06:32:13;;;;;;;19.70;17.90;;;9.10;99.90;;;11.71;54.67;97807.97;5236806;28;20236;-62
2021/04/21 06:34:46;;;;;;;19.33;17.48;;;9.30;99.90;;;11.64;54.62;97818.69;5234132;28;20188;-61
2021/04/21 06:37:19;;;;;;;19.60;17.70;;;9.20;99.90;;;11.99;53.92;97809.44;5228581;28;20193;-61
2021/04/21 06:39:52;;;;;;;19.67;17.77;;;9.50;99.90;;;12.21;53.52;97805.38;5235728;28;20499;-62
2021/04/21 06:42:24;;;;;;;21.45;19.25;;;9.80;99.90;;;12.16;53.62;97813.72;5244675;28;20217;-62
2021/04/21 06:44:56;;;;;;;21.98;19.88;;;9.60;99.90;;;12.26;52.99;97807.34;5240892;28;20201;-61
2021/04/21 06:47:29;;;;;;;21.50;19.50;;;9.80;99.90;;;12.63;52.30;97820.28;5230904;28;20192;-62
2021/04/21 06:50:06;;;;;;;21.30;19.15;;;10.00;99.90;;;12.64;53.35;97818.59;5229228;28;20184;-61
2021/04/21 06:52:42;;;;;;;22.50;20.20;;;10.20;99.90;;;12.91;52.38;97811.34;5229696;28;20227;-61
2021/04/21 06:55:17;;;;;;;23.33;20.85;;;10.60;99.90;;;13.24;50.73;97818.84;5230421;28;21472;-62
2021/04/21 06:57:49;;;;;;;22.67;20.38;;;10.90;99.90;;;13.45;51.35;97822.44;5236359;28;20192;-61
2021/04/21 07:00:25;;;;;;;23.38;21.08;;;11.20;99.90;;;13.91;50.48;97821.88;5227209;28;20730;-61
2021/04/21 07:02:58;;;;;;;22.55;20.38;;;11.50;99.90;;;14.16;49.52;97808.41;5226220;28;20303;-60
2021/04/21 07:05:34;;;;;;;21.90;19.73;;;11.60;99.90;;;14.42;49.10;97811.16;5235483;28;20199;-62
2021/04/21 07:08:13;;;;;;;24.38;21.98;;;12.00;99.90;;;14.69;49.24;97815.72;5232135;28;20703;-63
2021/04/21 07:10:48;;;;;;;24.25;21.75;;;12.10;99.90;;;15.12;48.02;97807.97;5234150;28;20205;-63
2021/04/21 07:13:23;;;;;;;22.98;20.67;;;12.30;99.90;;;15.38;47.72;97818.38;5235154;28;20212;-62
2021/04/21 07:15:57;;;;;;;23.48;21.08;;;12.40;99.90;;;15.77;46.81;97807.00;5243950;28;20200;-63
2021/04/21 07:18:37;;;;;;;24.20;21.70;;;12.70;99.70;;;16.07;46.46;97806.31;5229586;28;20212;-62
2021/04/21 07:21:11;;;;;;;25.02;22.42;;;13.00;99.50;;;16.31;46.03;97813.13;5240893;28;20208;-62
2021/04/21 07:23:50;;;;;;;23.83;21.52;;;13.20;99.10;;;16.57;45.04;97811.44;5230871;28;20594;-63
2021/04/21 07:26:28;;;;;;;23.88;21.48;;;13.50;98.30;;;16.80;44.73;97809.63;5236329;28;20200;-63
2021/04/21 07:29:01;;;;;;;23.88;21.58;;;13.50;98.40;;;17.21;44.13;97815.19;5249396;28;20197;-63
2021/04/21 07:31:37;;;;;;;25.67;23.17;;;13.60;98.10;;;17.28;43.64;97817.09;5240455;28;20790;-63
2021/04/21 07:34:31;;;;;;;23.52;21.13;;;14.00;98.00;;;17.71;42.84;97808.00;5244444;28;20212;-64
2021/04/21 07:37:03;;;;;;;25.17;22.85;;;14.20;97.60;;;17.87;43.45;97802.47;5242167;28;20200;-64
2021/04/21 07:39:39;;;;;;;25.55;22.92;;;14.40;97.80;;;17.86;43.14;97802.44;5231165;28;20673;-61
2021/04/21 07:42:17;;;;;;;24.15;21.80;;;14.70;97.00;;;17.72;43.14;97804.59;5249667;28;20220;-62
2021/04/21 07:44:53;;;;;;;24.55;22.15;;;15.00;96.80;;;17.58;44.20;97800.75;5232824;28;20235;-62
2021/04/21 07:47:26;;;;;;;25.02;22.77;;;15.10;96.50;;;17.53;44.51;97801.47;5228769;28;20634;-61
2021/04/21 07:50:05;;;;;;;24.77;22.38;;;15.30;96.20;;;17.63;43.89;97796.59;5244112;28;20618;-62
2021/04/21 07:52:38;;;;;;;25.60;23.20;;;15.50;95.60;;;17.60;44.73;97799.97;5244202;28;20213;-62
2021/04/21 07:55:14;;;;;;;25.48;22.88;;;15.50;95.90;;;17.84;44.89;97804.97;5242923;28;20201;-64
2021/04/21 07:57:59;;;;;;;26.60;23.98;;;15.70;95.70;;;17.76;44.24;97798.69;5232069;28;20653;-61
2021/04/21 08:00:33;;;;;;;23.90;21.50;;;15.80;95.30;;;18.04;43.96;97802.06;5241772;28;20262;-62
2021/04/21 08:03:06;;;;;;;25.27;22.77;;;16.00;94.50;;;17.98;43.00;97801.06;5229364;28;20219;-61
2021/04/21 08:05:50;;;;;;;25.80;22.95;;;16.20;93.50;;;18.14;42.84;97798.84;5242360;28;20201;-62
2021/04/21 08:08:27;;;;;;;25.23;22.80;;;16.40;93.10;;;18.12;42.49;97803.13;5240563;28;20548;-62
2021/04/21 08:11:02;;;;;;;26.70;24.15;;;16.20;93.60;;;18.04;42.67;97800.34;5233956;28;20205;-60
2021/04/21 08:13:41;;;;;;;24.17;21.88;;;16.30;93.30;;;18.29;42.54;97796.69;5234109;28;20250;-62
2021/04/21 08:16:22;;;;;;;25.80;23.20;;;16.30;93.50;;;18.36;41.54;97800.31;5245216;28;20283;-61
2021/04/21 08:18:54;;;;;;;25.38;22.77;;;16.80;92.20;;;18.28;41.56;97802.69;5256574;28;20213;-61
2021/04/21 08:21:37;;;;;;;24.10;21.75;;;16.70;91.80;;;18.37;40.74;97795.19;5237483;28;20304;-62
2021/04/21 08:24:25;;;;;;;23.50;21.15;;;16.60;91.60;;;18.58;41.22;97802.59;5231379;28;20272;-61
2021/04/21 08:26:57;;;;;;;23.10;20.73;;;17.00;91.60;;;18.68;40.58;97799.41;5243433;28;20535;-61
2021/04/21 08:29:31;;;;;;;24.77;22.27;;;17.00;90.90;;;18.55;40.84;97797.34;5243818;28;20196;-59
2021/04/21 08:32:08;;;;;;;25.48;22.90;;;17.10;90.90;;;18.78;39.81;97797.94;5236461;28;20291;-62
2021/04/21 08:34:41;;;;;;;21.60;19.50;;;17.30;90.30;;;18.80;40.44;97796.25;5237202;28;20195;-61
2021/04/21 08:37:14;;;;;;;23.45;21.25;;;17.30;90.30;;;18.78;40.41;97800.50;5232559;28;20209;-61
2021/04/21 08:39:46;;;;;;;23.05;20.77;;;17.50;90.30;;;18.86;40.12;97791.22;5245222;28;20251;-62
2021/04/21 08:42:23;;;;;;;23.45;21.15;;;17.60;90.10;;;19.06;39.62;97790.81;5244989;28;20224;-62
2021/04/21 08:44:55;;;;;;;21.20;19.17;;;17.80;89.10;;;19.15;38.20;97793.59;5248814;28;20577;-62
2021/04/21 08:47:34;;;;;;;20.90;18.90;;;17.80;87.00;;;19.28;38.64;97787.81;5237995;28;20192;-62
2021/04/21 08:50:08;;;;;;;20.23;18.30;;;17.90;87.60;;;19.28;37.65;97795.59;5228679;28;20193;-63
2021/04/21 08:52:46;;;;;;;19.95;17.95;;;18.00;85.30;;;19.56;37.46;97791.00;5238379;28;20213;-62
2021/04/21 08:55:19;;;;;;;17.73;16.05;;;18.20;85.40;;;19.64;35.71;97792.03;5230018;28;20197;-60
2021/04/21 08:57:52;;;;;;;16.20;14.60;;;18.40;81.70;;;19.72;34.90;97785.31;5244977;28;20193;-60
2021/04/21 09:00:24;;;;;;;17.75;15.95;;;18.60;79.20;;;19.70;34.18;97784.41;5241930;28;20220;-61
2021/04/21 09:02:59;;;;;;;15.45;14.05;;;18.70;78.00;;;19.84;34.54;97779.50;5232357;28;20215;-60
2021/04/21 09:05:31;;;;;;;15.43;14.02;;;18.70;78.70;;;19.92;35.19;97784.84;5232631;28;20200;-61
2021/04/21 09:08:04;;;;;;;15.43;14.02;;;18.90;79.20;;;20.02;34.58;97781.53;5238746;28;20190;-60
2021/04/21 09:10:37;;;;;;;16.35;14.85;;;19.00;78.70;;;20.23;34.96;97787.13;5228054;28;20197;-61
2021/04/21 09:13:12;;;;;;;13.23;11.93;;;19.20;79.60;;;20.30;34.50;97782.91;5227030;28;20225;-61
2021/04/21 09:15:45;;;;;;;13.07;11.77;;;19.20;78.70;;;20.41;34.49;97788.31;5241688;28;20284;-61
2021/04/21 09:18:25;;;;;;;14.38;13.02;;;19.40;77.90;;;20.46;34.32;97779.75;5243860;28;20206;-60
2021/04/21 09:20:58;;;;;;;15.77;14.18;;;19.50;77.50;;;20.55;33.83;97785.97;5227118;28;20207;-60
2021/04/21 09:23:38;;;;;;;14.48;13.15;;;19.50;76.50;;;20.60;33.29;97777.41;5234860;28;20695;-61
2021/04/21 09:26:17;;;;;;;15.15;13.65;;;19.50;76.20;;;20.62;32.51;97773.09;5247756;28;20200;-61
2021/04/21 09:28:54;;;;;;;14.75;13.45;;;19.60;74.70;;;20.35;33.04;97778.69;5236760;28;20193;-61
2021/04/21 09:31:28;;;;;;;15.52;14.10;;;19.50;75.00;;;20.45;32.66;97770.19;5226650;28;20201;-61
2021/04/21 09:34:11;;;;;;;15.90;13.68;;;19.50;74.50;;;20.21;32.73;97769.78;5234659;28;20186;-61
2021/04/21 09:36:46;;;;;;;14.48;13.07;;;19.30;73.80;;;20.30;33.33;97763.88;5239613;28;20193;-61
2021/04/21 09:39:23;;;;;;;12.10;11.00;;;19.40;74.80;;;20.40;33.36;97760.56;5236544;28;20222;-62
2021/04/21 09:42:00;;;;;;;14.80;13.40;;;19.50;75.00;;;20.33;33.22;97764.78;5247645;28;20220;-61
2021/04/21 09:44:46;;;;;;;14.65;13.25;;;19.50;74.30;;;20.59;32.05;97760.06;5233401;28;20193;-64
2021/04/21 09:47:20;;;;;;;15.85;14.15;;;19.70;72.50;;;20.58;32.36;97760.91;5236031;28;20196;-62
2021/04/21 09:49:58;;;;;;;16.38;14.88;;;19.70;73.70;;;20.63;32.87;97758.38;5229785;28;20262;-63
2021/04/21 09:52:30;;;;;;;15.10;13.68;;;20.00;73.30;;;20.79;30.98;97760.38;5235595;28;20230;-61
2021/04/21 09:55:15;;;;;;;11.73;10.52;;;19.90;70.30;;;20.92;30.32;97757.13;5244613;28;20703;-61
2021/04/21 09:57:46;;;;;;;12.38;11.20;;;20.20;67.90;;;21.04;30.18;97755.53;5235905;28;20196;-62
2021/04/21 10:00:25;;;;;;;12.20;11.00;;;20.30;68.10;;;21.12;29.50;97754.78;5243562;28;20229;-62
2021/04/21 10:02:57;;;;;;;11.00;9.90;;;20.10;67.00;;;20.89;29.03;97751.00;5244596;28;20302;-62
2021/04/21 10:05:33;;;;;;;9.63;8.82;;;19.70;66.20;;;20.97;29.66;97748.50;5244004;28;20211;-62
2021/04/21 10:08:14;;;;;;;9.63;8.82;;;19.90;66.80;;;21.19;28.91;97744.47;5240911;28;20207;-62
2021/04/21 10:10:59;;;;;;;11.85;10.57;;;20.20;66.00;;;21.23;29.27;97741.94;5244951;28;20284;-62
2021/04/21 10:13:43;;;;;;;11.23;10.23;;;20.20;66.70;;;21.40;28.41;97747.38;5246510;28;20219;-62
2021/04/21 10:16:16;;;;;;;11.90;10.80;;;20.40;65.30;;;21.52;28.88;97742.34;5228037;28;20203;-62
2021/04/21 10:18:50;;;;;;;12.02;10.82;;;20.60;66.30;;;21.54;30.00;97732.81;5230893;28;20656;-62
2021/04/21 10:21:22;;;;;;;11.07;10.00;;;20.70;67.30;;;21.75;29.41;97734.78;5229580;28;20201;-62
2021/04/21 10:23:55;;;;;;;11.23;10.27;;;21.00;66.50;;;21.83;29.46;97740.06;5228571;28;20571;-62
2021/04/21 10:26:27;;;;;;;11.80;10.80;;;20.80;67.40;;;21.82;29.85;97738.31;5231841;28;20204;-62
2021/04/21 10:28:59;;;;;;;10.07;9.25;;;20.80;67.60;;;21.74;29.83;97732.16;5241916;28;20189;-62
2021/04/21 10:31:32;;;;;;;10.88;9.88;;;20.80;67.30;;;21.45;29.98;97735.28;5241162;28;20204;-63
2021/04/21 10:34:05;;;;;;;10.48;9.57;;;20.50;66.30;;;21.83;29.10;97737.44;5237358;28;20303;-62
2021/04/21 10:36:41;;;;;;;11.07;10.07;;;20.70;66.50;;;22.03;28.75;97738.56;5230763;28;20200;-62
2021/04/21 10:39:13;;;;;;;10.57;9.57;;;20.90;65.30;;;22.25;28.62;97731.81;5227752;28;20223;-62
2021/04/21 10:42:09;;;;;;;11.20;10.25;;;21.20;65.00;;;22.40;27.66;97736.28;5228854;28;20217;-62
2021/04/21 10:44:43;;;;;;;13.73;12.48;;;21.30;63.70;;;21.97;31.60;97735.88;5232220;28;20280;-62
2021/04/21 10:47:17;;;;;;;12.57;11.48;;;21.00;70.40;;;21.69;31.64;97733.84;5247133;28;20196;-62
2021/04/21 10:49:57;;;;;;;13.02;11.82;;;20.70;70.10;;;21.36;31.83;97730.84;5241649;28;20215;-62
2021/04/21 10:52:38;;;;;;;12.07;10.95;;;20.50;70.50;;;21.01;32.74;97724.31;5247574;28;20219;-62
2021/04/21 10:55:39;;;;;;;11.70;10.70;;;20.10;71.70;;;20.77;33.50;97736.09;5240853;28;20737;-62
2021/04/21 10:58:13;;;;;;;12.68;11.57;;;19.80;72.50;;;20.51;34.22;97733.06;5232022;28;20273;-62
2021/04/21 11:00:47;;;;;;;11.27;10.27;;;19.50;74.60;;;20.68;34.48;97722.97;5245207;28;20580;-59
2021/04/21 11:03:25;;;;;;;9.80;9.00;;;19.50;74.90;;;20.44;35.00;97726.91;5230903;28;20255;-62
2021/04/21 11:05:59;;;;;;;11.40;10.20;;;19.40;76.20;;;20.48;34.75;97722.63;5245324;28;20197;-62